createdAt,value
2022-08-27T00:02:06.696Z,19.10
2022-08-27T00:04:34.827Z,19.10
2022-08-27T00:07:44.747Z,19.10
2022-08-27T00:10:17.398Z,19.20
2022-08-27T00:12:44.597Z,19.10
2022-08-27T00:15:26.307Z,19.10
2022-08-27T00:17:53.350Z,19.10
2022-08-27T00:20:23.704Z,19.10
2022-08-27T00:23:14.473Z,19.10
2022-08-27T00:25:41.465Z,19.00
2022-08-27T00:28:08.523Z,19.10
2022-08-27T00:30:58.912Z,19.10
2022-08-27T00:33:28.716Z,19.10
2022-08-27T00:35:56.610Z,19.10
2022-08-27T00:38:42.946Z,19.10
2022-08-27T00:41:12.577Z,19.00
2022-08-27T00:44:04.481Z,19.00
2022-08-27T00:46:42.335Z,19.00
2022-08-27T00:49:51.073Z,19.10
2022-08-27T00:52:53.231Z,19.10
2022-08-27T00:55:27.665Z,19.00
2022-08-27T00:58:32.485Z,19.00
2022-08-27T01:01:00.749Z,19.00
2022-08-27T01:03:28.076Z,19.00
2022-08-27T01:05:59.155Z,19.00
2022-08-27T01:08:31.173Z,19.00
2022-08-27T01:11:00.706Z,19.00
2022-08-27T01:13:58.901Z,19.00
2022-08-27T01:16:24.059Z,19.00
2022-08-27T01:18:51.930Z,19.00
2022-08-27T01:21:59.739Z,18.90
2022-08-27T01:24:36.017Z,18.90
2022-08-27T01:27:08.068Z,18.90
2022-08-27T01:29:42.661Z,18.90
2022-08-27T01:32:16.872Z,18.90
2022-08-27T01:34:50.401Z,18.90
2022-08-27T01:37:23.720Z,18.90
2022-08-27T01:39:53.221Z,18.90
2022-08-27T01:42:24.937Z,18.90
2022-08-27T01:45:05.860Z,18.90
2022-08-27T01:47:34.541Z,18.90
2022-08-27T01:50:04.945Z,18.90
2022-08-27T01:52:32.147Z,18.80
2022-08-27T01:55:48.971Z,18.80
2022-08-27T01:58:18.016Z,18.70
2022-08-27T02:04:26.600Z,18.50
2022-08-27T02:06:53.621Z,18.60
2022-08-27T02:09:21.065Z,18.60
2022-08-27T02:11:48.129Z,18.60
2022-08-27T02:14:15.608Z,18.70
2022-08-27T02:16:49.785Z,18.60
2022-08-27T02:20:08.840Z,18.60
2022-08-27T02:22:35.990Z,18.50
2022-08-27T02:25:03.647Z,18.60
2022-08-27T02:27:55.045Z,18.50
2022-08-27T02:30:24.378Z,18.40
2022-08-27T02:32:53.150Z,18.40
2022-08-27T02:35:44.424Z,18.30
2022-08-27T02:38:13.382Z,18.40
2022-08-27T02:40:40.748Z,18.40
2022-08-27T02:43:29.897Z,18.40
2022-08-27T02:45:57.513Z,18.40
2022-08-27T02:48:25.583Z,18.40
2022-08-27T02:51:19.662Z,18.40
2022-08-27T02:53:46.876Z,18.40
2022-08-27T02:56:14.156Z,18.40
2022-08-27T02:58:49.717Z,18.40
2022-08-27T03:01:16.868Z,18.50
2022-08-27T03:04:18.928Z,18.40
2022-08-27T03:06:47.288Z,18.40
2022-08-27T03:09:14.552Z,18.40
2022-08-27T03:11:59.760Z,18.50
2022-08-27T03:14:26.755Z,18.50
2022-08-27T03:16:54.013Z,18.30
2022-08-27T03:19:24.209Z,18.30
2022-08-27T03:21:54.397Z,18.30
2022-08-27T03:24:21.918Z,18.30
2022-08-27T03:27:08.830Z,18.20
2022-08-27T03:29:36.903Z,18.20
2022-08-27T03:32:07.007Z,18.10
2022-08-27T03:35:25.287Z,18.10
2022-08-27T03:37:52.341Z,18.10
2022-08-27T03:40:19.957Z,18.00
2022-08-27T03:43:12.652Z,18.00
2022-08-27T03:46:00.637Z,18.00
2022-08-27T03:48:40.872Z,17.90
2022-08-27T03:51:13.995Z,17.80
2022-08-27T03:53:43.757Z,17.80
2022-08-27T03:56:13.204Z,17.70
2022-08-27T03:58:40.589Z,17.70
2022-08-27T04:01:08.582Z,17.70
2022-08-27T04:03:37.214Z,17.60
2022-08-27T04:06:04.680Z,17.60
2022-08-27T04:08:32.158Z,17.50
2022-08-27T04:11:48.844Z,17.50
2022-08-27T04:14:24.844Z,17.60
2022-08-27T04:16:57.870Z,17.50
2022-08-27T04:19:30.221Z,17.50
2022-08-27T04:22:08.204Z,17.40
2022-08-27T04:24:37.166Z,17.50
2022-08-27T04:27:05.878Z,17.40
2022-08-27T04:29:58.357Z,17.30
2022-08-27T04:32:27.384Z,17.30
2022-08-27T04:34:58.070Z,17.30
2022-08-27T04:37:44.959Z,17.20
2022-08-27T04:40:12.301Z,17.20
2022-08-27T04:42:39.310Z,17.20
2022-08-27T04:45:32.366Z,17.30
2022-08-27T04:48:00.452Z,17.30
2022-08-27T04:50:27.810Z,17.40
2022-08-27T04:53:18.166Z,17.50
2022-08-27T04:55:52.297Z,17.70
2022-08-27T04:58:21.856Z,17.70
2022-08-27T05:00:51.807Z,17.80
2022-08-27T05:03:23.765Z,17.80
2022-08-27T05:05:53.605Z,17.90
2022-08-27T05:08:20.836Z,17.90
2022-08-27T05:10:50.943Z,18.00
2022-08-27T05:13:23.339Z,18.10
2022-08-27T05:15:51.240Z,18.10
2022-08-27T05:18:18.256Z,18.20
2022-08-27T05:20:54.596Z,18.30
2022-08-27T05:23:22.024Z,18.30
2022-08-27T05:25:51.262Z,18.40
2022-08-27T05:28:39.217Z,18.50
2022-08-27T05:31:09.227Z,18.60
2022-08-27T05:33:38.859Z,18.60
2022-08-27T05:36:26.488Z,18.70
2022-08-27T05:38:55.754Z,18.80
2022-08-27T05:41:34.515Z,18.70
2022-08-27T05:46:53.865Z,18.80
2022-08-27T05:49:20.963Z,18.80
2022-08-27T05:51:53.230Z,18.90
2022-08-27T05:54:20.214Z,19.00
2022-08-27T05:57:24.759Z,19.00
2022-08-27T06:03:01.498Z,19.10
2022-08-27T06:05:28.549Z,19.20
2022-08-27T06:07:55.608Z,19.20
2022-08-27T06:10:24.644Z,19.30
2022-08-27T06:12:56.273Z,19.30
2022-08-27T06:15:23.939Z,19.40
2022-08-27T06:18:28.286Z,19.40
2022-08-27T06:20:55.515Z,19.40
2022-08-27T06:23:27.882Z,19.50
2022-08-27T06:25:57.024Z,19.60
2022-08-27T06:28:29.708Z,19.70
2022-08-27T06:31:08.982Z,19.80
2022-08-27T06:33:36.222Z,19.80
2022-08-27T06:36:05.856Z,19.90
2022-08-27T06:38:34.177Z,19.90
2022-08-27T06:41:03.133Z,20.00
2022-08-27T06:43:44.438Z,19.90
2022-08-27T06:46:17.495Z,19.90
2022-08-27T06:48:48.516Z,19.90
2022-08-27T06:51:18.780Z,20.00
2022-08-27T06:53:47.439Z,20.00
2022-08-27T06:56:17.198Z,20.00
2022-08-27T06:58:44.952Z,20.00
2022-08-27T07:01:17.830Z,20.00
2022-08-27T07:03:45.819Z,20.00
2022-08-27T07:06:14.600Z,20.00
2022-08-27T07:08:43.335Z,20.00
2022-08-27T07:11:12.086Z,20.00
2022-08-27T07:13:39.894Z,20.00
2022-08-27T07:16:10.057Z,20.00
2022-08-27T07:18:39.051Z,19.90
2022-08-27T07:21:08.877Z,19.80
2022-08-27T07:23:37.619Z,19.80
2022-08-27T07:26:10.872Z,19.70
2022-08-27T07:28:39.331Z,19.70
2022-08-27T07:31:11.290Z,19.70
2022-08-27T07:33:46.077Z,19.60
2022-08-27T07:36:19.051Z,19.60
2022-08-27T07:38:51.692Z,19.60
2022-08-27T07:41:30.587Z,19.50
2022-08-27T07:44:31.070Z,19.50
2022-08-27T07:47:01.827Z,19.50
2022-08-27T07:49:30.619Z,19.50
2022-08-27T07:51:58.928Z,19.50
2022-08-27T07:54:26.145Z,19.50
2022-08-27T07:56:55.039Z,19.50
2022-08-27T07:59:24.653Z,19.50
2022-08-27T08:01:52.396Z,19.50
2022-08-27T08:04:20.422Z,19.50
2022-08-27T08:06:49.248Z,19.50
2022-08-27T08:09:16.289Z,19.50
2022-08-27T08:11:43.355Z,19.50
2022-08-27T08:14:10.375Z,19.50
2022-08-27T08:16:37.848Z,19.50
2022-08-27T08:19:05.942Z,19.50
2022-08-27T08:21:32.968Z,19.40
2022-08-27T08:24:03.249Z,19.40
2022-08-27T08:26:30.241Z,19.40
2022-08-27T08:28:57.493Z,19.50
2022-08-27T08:31:25.006Z,19.50
2022-08-27T08:33:53.170Z,19.50
2022-08-27T08:36:20.183Z,19.50
2022-08-27T08:38:48.434Z,19.50
2022-08-27T08:41:50.717Z,19.50
2022-08-27T08:44:36.080Z,19.50
2022-08-27T08:47:18.871Z,19.40
2022-08-27T08:50:11.126Z,19.30
2022-08-27T08:53:10.247Z,19.30
2022-08-27T08:55:47.991Z,19.30
2022-08-27T08:58:37.657Z,19.20
2022-08-27T09:01:07.378Z,19.20
2022-08-27T09:03:40.906Z,19.10
2022-08-27T09:06:21.461Z,19.10
2022-08-27T09:08:49.239Z,19.00
2022-08-27T09:11:35.284Z,19.00
2022-08-27T09:14:10.380Z,19.00
2022-08-27T09:16:40.889Z,19.00
2022-08-27T09:19:12.969Z,19.00
2022-08-27T09:22:11.425Z,19.00
2022-08-27T09:24:54.754Z,19.00
2022-08-27T09:27:23.232Z,19.00
2022-08-27T09:29:57.425Z,18.90
2022-08-27T09:32:31.674Z,18.90
2022-08-27T09:35:01.173Z,18.90
2022-08-27T09:37:57.874Z,18.90
2022-08-27T09:40:32.473Z,18.90
2022-08-27T09:43:23.760Z,18.90
2022-08-27T09:45:58.754Z,18.90
2022-08-27T09:48:31.808Z,19.00
2022-08-27T09:51:07.876Z,19.00
2022-08-27T09:53:56.446Z,19.00
2022-08-27T09:56:31.691Z,19.10
2022-08-27T10:02:53.693Z,19.20
2022-08-27T10:05:54.079Z,19.20
2022-08-27T10:08:41.968Z,19.20
2022-08-27T10:11:22.259Z,19.30
2022-08-27T10:14:30.001Z,19.30
2022-08-27T10:17:02.591Z,19.40
2022-08-27T10:19:32.499Z,19.40
2022-08-27T10:22:11.533Z,19.50
2022-08-27T10:24:48.592Z,19.50
2022-08-27T10:28:01.543Z,19.60
2022-08-27T10:30:56.028Z,19.70
2022-08-27T10:33:50.634Z,19.80
2022-08-27T10:36:23.559Z,19.90
2022-08-27T10:38:58.712Z,20.00
2022-08-27T10:41:49.552Z,20.10
2022-08-27T10:44:22.620Z,20.30
2022-08-27T10:47:14.097Z,20.30
2022-08-27T10:50:04.295Z,20.50
2022-08-27T10:56:27.459Z,21.10
2022-08-27T10:59:02.833Z,21.50
2022-08-27T11:01:45.286Z,21.60
2022-08-27T11:04:23.668Z,21.70
2022-08-27T11:07:02.128Z,21.70
2022-08-27T11:09:50.791Z,21.60
2022-08-27T11:12:32.519Z,21.50
2022-08-27T11:15:12.988Z,21.50
2022-08-27T11:17:51.038Z,21.40
2022-08-27T11:20:45.705Z,21.40
2022-08-27T11:23:25.836Z,21.70
2022-08-27T11:26:02.127Z,22.10
2022-08-27T11:28:49.029Z,22.50
2022-08-27T11:31:28.283Z,22.60
2022-08-27T11:33:58.232Z,22.90
2022-08-27T11:36:34.180Z,23.10
2022-08-27T11:39:20.064Z,23.20
2022-08-27T11:42:09.839Z,23.50
2022-08-27T11:44:46.754Z,23.80
2022-08-27T11:47:15.705Z,24.00
2022-08-27T11:50:01.726Z,24.10
2022-08-27T11:52:37.603Z,24.20
2022-08-27T11:55:22.496Z,24.20
2022-08-27T11:58:02.183Z,24.30
2022-08-27T12:00:35.590Z,24.40
2022-08-27T12:03:35.461Z,24.40
2022-08-27T12:06:29.911Z,24.10
2022-08-27T12:09:14.477Z,24.20
2022-08-27T12:11:56.435Z,24.00
2022-08-27T12:14:45.512Z,23.90
2022-08-27T12:17:40.039Z,24.00
2022-08-27T12:20:10.211Z,24.00
2022-08-27T12:23:23.742Z,24.00
2022-08-27T12:26:15.642Z,24.00
2022-08-27T12:28:42.671Z,24.00
2022-08-27T12:31:09.995Z,23.90
2022-08-27T12:33:44.267Z,23.70
2022-08-27T12:36:33.931Z,23.40
2022-08-27T12:39:04.217Z,23.30
2022-08-27T12:41:44.278Z,23.30
2022-08-27T12:44:24.615Z,23.20
2022-08-27T12:47:02.028Z,23.20
2022-08-27T12:49:53.803Z,23.10
2022-08-27T12:52:44.010Z,23.10
2022-08-27T12:55:33.902Z,23.00
2022-08-27T12:58:14.852Z,22.90
2022-08-27T13:01:13.769Z,22.70
2022-08-27T13:03:45.871Z,22.60
2022-08-27T13:06:34.381Z,22.50
2022-08-27T13:09:07.387Z,22.40
2022-08-27T13:11:56.748Z,22.50
2022-08-27T13:14:27.090Z,22.60
2022-08-27T13:17:03.192Z,22.70
2022-08-27T13:19:32.140Z,23.00
2022-08-27T13:22:05.390Z,23.10
2022-08-27T13:24:47.748Z,23.30
2022-08-27T13:27:15.278Z,23.40
2022-08-27T13:29:43.799Z,23.50
2022-08-27T13:32:14.384Z,23.50
2022-08-27T13:34:42.093Z,23.60
2022-08-27T13:37:26.129Z,23.70
2022-08-27T13:39:57.375Z,23.80
2022-08-27T13:42:26.661Z,23.90
2022-08-27T13:45:02.827Z,23.90
2022-08-27T13:47:30.990Z,23.90
2022-08-27T13:50:14.423Z,23.70
2022-08-27T13:53:02.036Z,23.60
2022-08-27T13:55:30.556Z,23.70
2022-08-27T13:58:00.836Z,24.00
2022-08-27T14:00:34.965Z,24.20
2022-08-27T14:03:02.824Z,24.20
2022-08-27T14:05:34.072Z,24.20
2022-08-27T14:08:14.626Z,24.10
2022-08-27T14:10:46.776Z,23.90
2022-08-27T14:13:16.696Z,23.70
2022-08-27T14:15:49.358Z,23.60
2022-08-27T14:18:32.131Z,23.40
2022-08-27T14:21:09.596Z,23.30
2022-08-27T14:23:36.734Z,23.20
2022-08-27T14:26:04.096Z,23.10
2022-08-27T14:28:32.042Z,23.00
2022-08-27T14:30:59.091Z,22.90
2022-08-27T14:33:26.344Z,22.80
2022-08-27T14:35:53.788Z,22.90
2022-08-27T14:38:26.884Z,22.90
2022-08-27T14:40:55.130Z,22.90
2022-08-27T14:43:22.941Z,22.90
2022-08-27T14:45:52.534Z,22.80
2022-08-27T14:48:28.618Z,22.80
2022-08-27T14:50:56.896Z,22.70
2022-08-27T14:53:24.325Z,22.70
2022-08-27T14:55:52.164Z,22.70
2022-08-27T14:58:19.700Z,22.70
2022-08-27T15:00:47.153Z,22.70
2022-08-27T15:03:14.392Z,22.70
2022-08-27T15:05:41.342Z,22.80
2022-08-27T15:08:13.273Z,22.80
2022-08-27T15:10:41.009Z,22.80
2022-08-27T15:13:11.355Z,22.90
2022-08-27T15:15:39.123Z,23.00
2022-08-27T15:18:06.742Z,23.00
2022-08-27T15:20:34.490Z,23.20
2022-08-27T15:23:03.388Z,23.30
2022-08-27T15:25:30.937Z,23.40
2022-08-27T15:27:58.086Z,23.40
2022-08-27T15:30:28.790Z,23.50
2022-08-27T15:32:56.319Z,23.50
2022-08-27T15:35:29.009Z,23.40
2022-08-27T15:37:57.180Z,23.30
2022-08-27T15:40:26.042Z,23.20
2022-08-27T15:43:02.375Z,23.20
2022-08-27T15:45:31.373Z,23.10
2022-08-27T15:47:59.438Z,23.10
2022-08-27T15:50:28.882Z,23.00
2022-08-27T15:52:59.763Z,23.00
2022-08-27T15:55:31.417Z,23.00
2022-08-27T15:58:00.014Z,23.10
2022-08-27T16:00:28.765Z,23.10
2022-08-27T16:02:57.128Z,23.20
2022-08-27T16:05:24.279Z,23.20
2022-08-27T16:07:51.309Z,23.20
2022-08-27T16:10:18.522Z,23.10
2022-08-27T16:12:46.346Z,23.00
2022-08-27T16:15:14.355Z,22.80
2022-08-27T16:17:43.260Z,22.70
2022-08-27T16:20:12.915Z,22.50
2022-08-27T16:22:42.059Z,22.50
2022-08-27T16:25:13.136Z,22.60
2022-08-27T16:27:42.482Z,22.50
2022-08-27T16:30:10.055Z,22.40
2022-08-27T16:32:37.072Z,22.30
2022-08-27T16:35:04.566Z,22.20
2022-08-27T16:37:31.556Z,22.10
2022-08-27T16:39:58.682Z,22.00
2022-08-27T16:42:25.915Z,21.90
2022-08-27T16:44:53.102Z,21.80
2022-08-27T16:47:20.216Z,21.70
2022-08-27T16:50:05.567Z,21.70
2022-08-27T16:52:32.636Z,21.60
2022-08-27T16:55:00.335Z,21.60
2022-08-27T16:57:27.562Z,21.60
2022-08-27T16:59:55.981Z,21.50
2022-08-27T17:02:30.249Z,21.40
2022-08-27T17:05:07.216Z,21.30
2022-08-27T17:07:48.265Z,21.20
2022-08-27T17:10:19.770Z,21.20
2022-08-27T17:12:47.969Z,21.10
2022-08-27T17:15:17.162Z,21.00
2022-08-27T17:17:44.604Z,20.90
2022-08-27T17:20:12.883Z,20.80
2022-08-27T17:22:39.880Z,20.80
2022-08-27T17:25:07.679Z,20.70
2022-08-27T17:27:35.408Z,20.60
2022-08-27T17:30:02.473Z,20.50
2022-08-27T17:32:32.665Z,20.40
2022-08-27T17:35:05.691Z,20.40
2022-08-27T17:37:33.975Z,20.40
2022-08-27T17:40:01.120Z,20.30
2022-08-27T17:42:29.731Z,20.20
2022-08-27T17:44:57.409Z,20.10
2022-08-27T17:47:25.096Z,20.10
2022-08-27T17:49:52.903Z,20.00
2022-08-27T17:52:20.649Z,20.00
2022-08-27T17:54:54.325Z,19.90
2022-08-27T17:57:25.151Z,19.90
2022-08-27T17:59:54.066Z,19.90
2022-08-27T18:02:28.023Z,19.80
2022-08-27T18:04:55.510Z,19.80
2022-08-27T18:07:22.594Z,19.70
2022-08-27T18:09:50.051Z,19.70
2022-08-27T18:12:20.536Z,19.70
2022-08-27T18:14:54.590Z,19.60
2022-08-27T18:17:21.621Z,19.60
2022-08-27T18:19:51.250Z,19.50
2022-08-27T18:22:18.426Z,19.50
2022-08-27T18:24:46.446Z,19.40
2022-08-27T18:27:13.660Z,19.40
2022-08-27T18:29:41.488Z,19.30
2022-08-27T18:32:08.489Z,19.30
2022-08-27T18:34:35.555Z,19.30
2022-08-27T18:37:07.838Z,19.20
2022-08-27T18:39:39.350Z,19.20
2022-08-27T18:42:07.157Z,19.10
2022-08-27T18:44:36.945Z,19.00
2022-08-27T18:47:04.573Z,19.00
2022-08-27T18:49:33.794Z,18.90
2022-08-27T18:52:01.631Z,19.00
2022-08-27T18:54:31.504Z,19.00
2022-08-27T18:56:58.610Z,19.00
2022-08-27T18:59:27.374Z,19.00
2022-08-27T19:01:56.519Z,19.00
2022-08-27T19:04:24.736Z,19.00
2022-08-27T19:06:52.182Z,19.00
2022-08-27T19:09:21.286Z,19.10
2022-08-27T19:11:51.781Z,19.10
2022-08-27T19:14:19.137Z,19.10
2022-08-27T19:16:50.770Z,19.10
2022-08-27T19:19:18.866Z,19.10
2022-08-27T19:21:51.171Z,19.10
2022-08-27T19:24:20.344Z,19.10
2022-08-27T19:26:49.264Z,19.10
2022-08-27T19:29:16.810Z,19.10
2022-08-27T19:31:45.383Z,19.10
2022-08-27T19:34:12.829Z,19.10
2022-08-27T19:36:46.196Z,19.10
2022-08-27T19:39:14.021Z,19.10
2022-08-27T19:41:44.437Z,19.10
2022-08-27T19:44:11.614Z,19.00
2022-08-27T19:46:51.509Z,19.00
2022-08-27T19:49:26.762Z,19.00
2022-08-27T19:51:54.382Z,19.00
2022-08-27T19:54:22.030Z,19.00
2022-08-27T19:56:55.442Z,19.00
2022-08-27T19:59:22.869Z,19.00
2022-08-27T20:02:30.629Z,19.00
2022-08-27T20:05:17.050Z,19.00
2022-08-27T20:07:48.050Z,19.00
2022-08-27T20:10:16.824Z,19.00
2022-08-27T20:13:22.879Z,18.90
2022-08-27T20:15:51.423Z,19.00
2022-08-27T20:18:20.486Z,18.90
2022-08-27T20:20:51.395Z,19.00
2022-08-27T20:23:18.863Z,19.00
2022-08-27T20:25:46.649Z,19.00
2022-08-27T20:28:42.678Z,19.00
2022-08-27T20:31:10.528Z,18.90
2022-08-27T20:33:37.808Z,19.00
2022-08-27T20:36:19.169Z,19.00
2022-08-27T20:38:46.823Z,18.90
2022-08-27T20:41:14.337Z,19.00
2022-08-27T20:43:42.586Z,18.90
2022-08-27T20:46:11.024Z,18.90
2022-08-27T20:48:38.544Z,18.90
2022-08-27T20:51:06.122Z,18.90
2022-08-27T20:53:41.486Z,18.90
2022-08-27T20:56:08.974Z,18.90
2022-08-27T20:58:59.652Z,18.90
2022-08-27T21:01:30.272Z,18.80
2022-08-27T21:03:58.718Z,18.80
2022-08-27T21:06:30.034Z,18.80
2022-08-27T21:09:00.440Z,18.80
2022-08-27T21:11:27.764Z,18.80
2022-08-27T21:13:59.445Z,18.80
2022-08-27T21:16:26.910Z,18.80
2022-08-27T21:18:54.555Z,18.80
2022-08-27T21:21:33.135Z,18.80
2022-08-27T21:24:00.577Z,18.80
2022-08-27T21:26:36.367Z,18.80
2022-08-27T21:29:04.094Z,18.80
2022-08-27T21:31:31.605Z,18.80
2022-08-27T21:34:01.148Z,18.90
2022-08-27T21:36:28.846Z,18.80
2022-08-27T21:39:34.446Z,18.80
2022-08-27T21:42:02.085Z,18.80
2022-08-27T21:44:30.933Z,18.80
2022-08-27T21:47:47.924Z,18.80
2022-08-27T21:50:19.843Z,18.70
2022-08-27T21:52:50.493Z,18.70
2022-08-27T21:55:36.742Z,18.70
2022-08-27T21:58:04.485Z,18.70
2022-08-27T22:00:36.093Z,18.70
2022-08-27T22:03:10.481Z,18.70
2022-08-27T22:05:40.684Z,18.70
2022-08-27T22:08:09.073Z,18.70
2022-08-27T22:10:46.431Z,18.70
2022-08-27T22:13:14.464Z,18.70
2022-08-27T22:15:42.278Z,18.70
2022-08-27T22:18:19.734Z,18.70
2022-08-27T22:20:51.318Z,18.70
2022-08-27T22:23:18.672Z,18.60
2022-08-27T22:25:48.461Z,18.60
2022-08-27T22:28:16.129Z,18.60
2022-08-27T22:30:45.397Z,18.60
2022-08-27T22:33:22.930Z,18.60
2022-08-27T22:35:50.328Z,18.70
2022-08-27T22:38:20.723Z,18.60
2022-08-27T22:44:36.702Z,18.60
2022-08-27T22:47:04.419Z,18.60
2022-08-27T22:49:31.527Z,18.60
2022-08-27T22:52:39.423Z,18.60
2022-08-27T22:55:07.281Z,18.60
2022-08-27T22:57:35.765Z,18.60
2022-08-27T23:03:53.225Z,18.50
2022-08-27T23:06:31.853Z,18.50
2022-08-27T23:08:59.110Z,18.60
2022-08-27T23:11:26.552Z,18.50
2022-08-27T23:14:19.416Z,18.50
2022-08-27T23:16:46.862Z,18.40
2022-08-27T23:19:14.190Z,18.40
2022-08-27T23:21:48.465Z,18.40
2022-08-27T23:24:16.171Z,18.40
2022-08-27T23:30:02.122Z,18.40
2022-08-27T23:32:30.001Z,18.40
2022-08-27T23:34:57.868Z,18.40
2022-08-27T23:41:15.530Z,18.40
2022-08-27T23:43:59.262Z,18.40
2022-08-27T23:46:26.860Z,18.30
2022-08-27T23:48:54.475Z,18.30
2022-08-27T23:51:22.085Z,18.30
2022-08-27T23:53:49.468Z,18.30
2022-08-27T23:56:16.811Z,18.30
2022-08-27T23:58:44.079Z,18.30
